createdAt,value
2024-03-04T00:00:41.452Z,54.67
2024-03-04T00:03:26.934Z,56.30
2024-03-04T00:06:11.953Z,61.50
2024-03-04T00:08:56.733Z,58.83
2024-03-04T00:11:41.722Z,57.07
2024-03-04T00:14:26.612Z,52.97
2024-03-04T00:17:11.528Z,58.23
2024-03-04T00:19:56.421Z,68.10
2024-03-04T00:22:41.484Z,74.77
2024-03-04T00:25:26.241Z,67.93
2024-03-04T00:28:11.181Z,71.97
2024-03-04T00:30:56.126Z,64.53
2024-03-04T00:33:41.051Z,65.23
2024-03-04T00:36:26.526Z,58.17
2024-03-04T00:39:11.644Z,58.17
2024-03-04T00:41:56.587Z,58.10
2024-03-04T00:44:41.369Z,66.57
2024-03-04T00:47:27.134Z,65.10
2024-03-04T00:50:12.305Z,66.57
2024-03-04T00:52:57.502Z,58.70
2024-03-04T00:55:42.766Z,63.40
2024-03-04T00:58:27.661Z,60.07
2024-03-04T01:01:12.647Z,70.63
2024-03-04T01:03:57.845Z,69.17
2024-03-04T01:06:42.841Z,66.80
2024-03-04T01:09:27.723Z,62.33
2024-03-04T01:12:12.550Z,57.57
2024-03-04T01:14:57.506Z,62.70
2024-03-04T01:17:42.323Z,59.47
2024-03-04T01:20:27.288Z,65.07
2024-03-04T01:23:12.309Z,63.20
2024-03-04T01:25:57.563Z,77.93
2024-03-04T01:28:42.380Z,75.40
2024-03-04T01:31:27.259Z,64.40
2024-03-04T01:34:12.121Z,65.40
2024-03-04T01:36:57.125Z,67.47
2024-03-04T01:39:42.331Z,80.07
2024-03-04T01:42:27.338Z,70.43
2024-03-04T01:45:23.207Z,68.53
2024-03-04T01:48:09.017Z,81.17
2024-03-04T01:50:55.266Z,72.83
2024-03-04T01:53:40.414Z,67.43
2024-03-04T01:56:25.681Z,57.57
2024-03-04T01:59:10.745Z,63.00
2024-03-04T02:01:55.721Z,87.57
2024-03-04T02:04:42.231Z,86.70
2024-03-04T02:07:27.433Z,93.00
2024-03-04T02:10:13.768Z,77.77
2024-03-04T02:12:59.473Z,82.07
2024-03-04T02:15:44.695Z,84.63
2024-03-04T02:18:29.912Z,85.23
2024-03-04T02:21:17.082Z,89.27
2024-03-04T02:24:02.204Z,98.80
2024-03-04T02:26:47.554Z,94.47
2024-03-04T02:29:32.452Z,100.93
2024-03-04T02:32:17.793Z,101.73
2024-03-04T02:35:03.655Z,96.90
2024-03-04T02:37:48.934Z,91.40
2024-03-04T02:40:33.811Z,97.03
2024-03-04T02:43:19.330Z,99.37
2024-03-04T02:46:04.932Z,104.73
2024-03-04T02:48:50.153Z,105.33
2024-03-04T02:51:35.253Z,92.67
2024-03-04T02:54:20.557Z,101.07
2024-03-04T02:57:05.673Z,102.70
2024-03-04T02:59:50.661Z,100.60
2024-03-04T03:02:35.579Z,96.13
2024-03-04T03:05:20.364Z,93.40
2024-03-04T03:08:06.099Z,92.57
2024-03-04T03:10:51.385Z,92.27
2024-03-04T03:13:36.691Z,94.73
2024-03-04T03:16:23.145Z,96.60
2024-03-04T03:19:08.077Z,93.67
2024-03-04T03:21:53.672Z,94.23
2024-03-04T03:24:38.973Z,101.07
2024-03-04T03:27:23.860Z,89.50
2024-03-04T03:30:09.276Z,83.37
2024-03-04T03:32:54.535Z,72.43
2024-03-04T03:35:40.060Z,83.60
2024-03-04T03:38:24.906Z,80.87
2024-03-04T03:41:10.037Z,89.17
2024-03-04T03:43:54.882Z,80.40
2024-03-04T03:46:39.832Z,77.17
2024-03-04T03:49:24.769Z,90.73
2024-03-04T03:52:09.643Z,86.73
2024-03-04T03:54:54.791Z,92.80
2024-03-04T03:57:51.242Z,97.43
2024-03-04T04:00:43.267Z,96.73
2024-03-04T04:03:28.611Z,92.67
2024-03-04T04:06:13.458Z,100.13
2024-03-04T04:08:58.435Z,97.13
2024-03-04T04:11:44.061Z,96.60
2024-03-04T04:14:29.274Z,97.47
2024-03-04T04:17:14.042Z,99.20
2024-03-04T04:19:59.037Z,93.80
2024-03-04T04:22:44.101Z,96.77
2024-03-04T04:25:28.864Z,107.03
2024-03-04T04:28:13.812Z,120.50
2024-03-04T04:30:59.205Z,124.10
2024-03-04T04:33:44.604Z,125.27
2024-03-04T04:36:29.404Z,134.37
2024-03-04T04:39:14.306Z,129.27
2024-03-04T04:41:59.283Z,136.03
2024-03-04T04:44:44.088Z,124.07
2024-03-04T04:47:29.016Z,134.00
2024-03-04T04:50:13.882Z,138.27
2024-03-04T04:52:59.189Z,131.37
2024-03-04T04:55:44.269Z,126.03
2024-03-04T04:58:29.649Z,126.83
2024-03-04T05:01:28.256Z,153.30
2024-03-04T05:04:31.752Z,149.53
2024-03-04T05:07:18.765Z,418.80
2024-03-04T05:10:05.057Z,310.03
2024-03-04T05:12:50.517Z,189.47
2024-03-04T05:15:35.337Z,189.23
2024-03-04T05:18:20.157Z,237.40
2024-03-04T05:21:05.717Z,458.60
2024-03-04T05:23:50.669Z,211.63
2024-03-04T05:26:35.746Z,306.93
2024-03-04T05:29:20.502Z,204.80
2024-03-04T05:32:05.904Z,232.47
2024-03-04T05:34:50.785Z,210.33
2024-03-04T05:37:35.628Z,195.07
2024-03-04T05:40:23.867Z,197.67
2024-03-04T05:43:08.817Z,204.57
2024-03-04T05:45:53.744Z,378.13
2024-03-04T05:48:38.642Z,256.07
2024-03-04T05:51:23.504Z,306.03
2024-03-04T05:54:11.914Z,450.67
2024-03-04T05:56:56.791Z,254.47
2024-03-04T05:59:42.184Z,254.83
2024-03-04T06:02:27.140Z,263.07
2024-03-04T06:05:13.016Z,416.07
2024-03-04T06:07:58.128Z,258.07
2024-03-04T06:10:42.974Z,628.80
2024-03-04T06:13:27.880Z,246.00
2024-03-04T06:16:12.782Z,258.00
2024-03-04T06:18:57.787Z,518.73
2024-03-04T06:21:45.193Z,369.50
2024-03-04T06:24:31.276Z,270.80
2024-03-04T06:27:16.152Z,353.57
2024-03-04T06:30:02.179Z,245.47
2024-03-04T06:32:47.175Z,289.53
2024-03-04T06:35:32.045Z,252.83
2024-03-04T06:38:16.822Z,457.07
2024-03-04T06:41:03.307Z,235.40
2024-03-04T06:43:48.243Z,561.83
2024-03-04T06:46:33.157Z,354.97
2024-03-04T06:49:18.594Z,515.37
2024-03-04T06:52:03.534Z,1018.67
2024-03-04T06:54:51.538Z,455.63
2024-03-04T06:57:36.398Z,379.73
2024-03-04T07:00:21.477Z,618.30
2024-03-04T07:03:06.675Z,451.50
2024-03-04T07:05:51.609Z,235.40
2024-03-04T07:08:36.627Z,232.90
2024-03-04T07:11:21.537Z,209.70
2024-03-04T07:14:06.393Z,236.87
2024-03-04T07:16:51.246Z,242.10
2024-03-04T07:19:36.157Z,231.50
2024-03-04T07:22:21.025Z,282.27
2024-03-04T07:25:07.026Z,193.10
2024-03-04T07:27:52.093Z,393.73
2024-03-04T07:30:37.040Z,269.73
2024-03-04T07:33:21.926Z,206.60
2024-03-04T07:36:07.091Z,192.47
2024-03-04T07:38:52.290Z,204.00
2024-03-04T07:41:37.224Z,196.83
2024-03-04T07:44:22.234Z,194.17
2024-03-04T07:47:07.328Z,173.30
2024-03-04T07:49:52.320Z,168.23
2024-03-04T07:52:37.265Z,171.20
2024-03-04T07:55:23.822Z,176.13
2024-03-04T07:58:08.969Z,251.20
2024-03-04T08:00:54.803Z,182.20
2024-03-04T08:03:39.872Z,380.03
2024-03-04T08:06:24.925Z,243.50
2024-03-04T08:09:10.100Z,244.90
2024-03-04T08:11:55.284Z,177.90
2024-03-04T08:14:40.184Z,168.07
2024-03-04T08:17:26.526Z,225.97
2024-03-04T08:20:17.559Z,191.07
2024-03-04T08:23:10.356Z,176.53
2024-03-04T08:25:55.371Z,184.10
2024-03-04T08:28:41.069Z,177.77
2024-03-04T08:31:26.133Z,197.37
2024-03-04T08:34:11.085Z,190.50
2024-03-04T08:36:56.426Z,175.63
2024-03-04T08:39:41.269Z,172.37
2024-03-04T08:42:26.234Z,159.07
2024-03-04T08:45:11.442Z,157.43
2024-03-04T08:47:56.857Z,147.90
2024-03-04T08:50:41.793Z,153.93
2024-03-04T08:53:26.686Z,147.87
2024-03-04T08:56:11.498Z,161.47
2024-03-04T08:58:58.425Z,151.40
2024-03-04T09:01:43.575Z,143.67
2024-03-04T09:04:28.529Z,154.00
2024-03-04T09:07:13.527Z,157.73
2024-03-04T09:09:58.543Z,159.93
2024-03-04T09:12:44.637Z,187.33
2024-03-04T09:15:29.652Z,154.90
2024-03-04T09:18:14.534Z,158.10
2024-03-04T09:20:59.379Z,147.27
2024-03-04T09:23:44.295Z,149.07
2024-03-04T09:26:29.211Z,167.67
2024-03-04T09:29:14.276Z,151.00
2024-03-04T09:31:59.095Z,212.63
2024-03-04T09:34:44.050Z,173.27
2024-03-04T09:37:28.892Z,191.43
2024-03-04T09:40:14.033Z,149.13
2024-03-04T09:42:59.093Z,147.37
2024-03-04T09:45:44.711Z,138.63
2024-03-04T09:48:30.364Z,149.83
2024-03-04T09:51:16.184Z,127.37
2024-03-04T09:54:01.592Z,141.20
2024-03-04T09:56:46.963Z,128.17
2024-03-04T09:59:32.871Z,133.30
2024-03-04T10:02:18.388Z,139.33
2024-03-04T10:05:03.643Z,122.17
2024-03-04T10:07:48.734Z,120.17
2024-03-04T10:10:34.229Z,127.47
2024-03-04T10:13:19.232Z,132.73
2024-03-04T10:16:06.803Z,138.50
2024-03-04T10:19:02.465Z,135.77
2024-03-04T10:21:48.813Z,133.20
2024-03-04T10:24:33.907Z,144.73
2024-03-04T10:27:19.045Z,145.63
2024-03-04T10:30:12.460Z,144.17
2024-03-04T10:33:00.036Z,140.03
2024-03-04T10:35:45.200Z,123.50
2024-03-04T10:38:30.116Z,139.27
2024-03-04T10:41:19.415Z,120.40
2024-03-04T10:44:04.792Z,133.00
2024-03-04T10:46:53.592Z,114.57
2024-03-04T10:49:39.597Z,109.33
2024-03-04T10:52:24.952Z,119.77
2024-03-04T10:55:10.521Z,118.33
2024-03-04T10:58:01.366Z,147.13
2024-03-04T11:00:46.805Z,129.17
2024-03-04T11:03:33.767Z,127.77
2024-03-04T11:06:24.394Z,118.33
2024-03-04T11:09:11.384Z,112.57
2024-03-04T11:12:01.848Z,164.73
2024-03-04T11:14:55.233Z,218.73
2024-03-04T11:17:47.252Z,101.27
2024-03-04T11:20:33.166Z,98.90
2024-03-04T11:23:18.892Z,104.80
2024-03-04T11:26:04.471Z,95.87
2024-03-04T11:28:51.342Z,94.43
2024-03-04T11:31:37.102Z,92.07
2024-03-04T11:34:22.221Z,94.17
2024-03-04T11:37:07.298Z,85.87
2024-03-04T11:39:54.512Z,85.53
2024-03-04T11:42:41.177Z,77.83
2024-03-04T11:45:34.051Z,76.30
2024-03-04T11:48:28.843Z,76.07
2024-03-04T11:51:13.973Z,76.03
2024-03-04T11:53:59.316Z,82.47
2024-03-04T11:56:44.794Z,71.95
2024-03-04T11:59:30.505Z,70.82
2024-03-04T12:02:15.743Z,75.03
2024-03-04T12:05:01.617Z,68.30
2024-03-04T12:07:47.364Z,75.77
2024-03-04T12:10:34.480Z,74.00
2024-03-04T12:13:20.393Z,73.00
2024-03-04T12:16:06.007Z,69.50
2024-03-04T12:18:50.986Z,71.93
2024-03-04T12:21:37.254Z,80.50
2024-03-04T12:24:22.883Z,75.97
2024-03-04T12:27:07.710Z,74.83
2024-03-04T12:29:52.768Z,84.07
2024-03-04T12:32:38.480Z,81.13
2024-03-04T12:35:25.884Z,81.13
2024-03-04T12:38:10.724Z,73.93
2024-03-04T12:40:55.637Z,76.60
2024-03-04T12:43:40.549Z,76.93
2024-03-04T12:46:26.032Z,77.53
2024-03-04T12:49:11.269Z,77.13
2024-03-04T12:51:56.346Z,74.03
2024-03-04T12:54:41.513Z,78.27
2024-03-04T12:57:26.574Z,78.67
2024-03-04T13:00:13.027Z,79.30
2024-03-04T13:02:57.885Z,80.70
2024-03-04T13:05:42.704Z,77.03
2024-03-04T13:08:27.668Z,77.10
2024-03-04T13:11:12.622Z,76.47
2024-03-04T13:13:57.688Z,75.90
2024-03-04T13:16:42.623Z,77.10
2024-03-04T13:19:27.723Z,75.87
2024-03-04T13:22:13.125Z,69.90
2024-03-04T13:24:58.051Z,68.73
2024-03-04T13:27:43.644Z,74.80
2024-03-04T13:30:29.216Z,74.90
2024-03-04T13:33:14.485Z,79.70
2024-03-04T13:36:00.446Z,82.37
2024-03-04T13:38:45.654Z,83.63
2024-03-04T13:41:30.573Z,94.57
2024-03-04T13:44:15.503Z,86.60
2024-03-04T13:47:01.251Z,88.90
2024-03-04T13:49:46.575Z,85.17
2024-03-04T13:52:32.100Z,90.27
2024-03-04T13:55:17.325Z,86.63
2024-03-04T13:58:03.016Z,88.63
2024-03-04T14:00:48.379Z,88.97
2024-03-04T14:03:33.453Z,80.77
2024-03-04T14:06:18.556Z,88.87
2024-03-04T14:09:03.885Z,87.83
2024-03-04T14:11:50.051Z,85.37
2024-03-04T14:14:35.041Z,83.87
2024-03-04T14:17:19.834Z,89.67
2024-03-04T14:20:05.931Z,81.63
2024-03-04T14:22:51.085Z,84.50
2024-03-04T14:25:36.639Z,81.67
2024-03-04T14:28:21.496Z,81.43
2024-03-04T14:31:06.445Z,77.93
2024-03-04T14:33:51.306Z,78.80
2024-03-04T14:36:36.259Z,74.80
2024-03-04T14:39:21.365Z,77.00
2024-03-04T14:42:06.194Z,74.37
2024-03-04T14:44:51.196Z,78.77
2024-03-04T14:47:36.123Z,80.53
2024-03-04T14:50:21.107Z,80.60
2024-03-04T14:53:06.039Z,86.90
2024-03-04T14:55:51.126Z,86.83
2024-03-04T14:58:36.070Z,80.17
2024-03-04T15:01:20.994Z,86.37
2024-03-04T15:04:06.554Z,84.53
2024-03-04T15:06:51.783Z,86.23
2024-03-04T15:09:37.115Z,91.30
2024-03-04T15:12:22.561Z,89.20
2024-03-04T15:15:12.180Z,93.20
2024-03-04T15:18:10.219Z,86.53
2024-03-04T15:21:04.446Z,89.47
2024-03-04T15:23:49.232Z,85.90
2024-03-04T15:26:34.142Z,87.77
2024-03-04T15:29:20.525Z,89.13
2024-03-04T15:32:05.701Z,97.83
2024-03-04T15:34:51.172Z,95.20
2024-03-04T15:37:36.703Z,95.47
2024-03-04T15:40:21.700Z,100.37
2024-03-04T15:43:06.489Z,97.80
2024-03-04T15:45:51.903Z,94.73
2024-03-04T15:48:37.557Z,90.07
2024-03-04T15:51:22.814Z,91.43
2024-03-04T15:54:07.769Z,86.93
2024-03-04T15:56:52.699Z,86.73
2024-03-04T15:59:37.951Z,86.40
2024-03-04T16:02:23.151Z,84.00
2024-03-04T16:05:12.222Z,86.77
2024-03-04T16:07:57.113Z,93.60
2024-03-04T16:10:42.706Z,90.57
2024-03-04T16:13:28.071Z,89.43
2024-03-04T16:16:13.019Z,97.90
2024-03-04T16:18:57.904Z,97.23
2024-03-04T16:21:43.172Z,97.23
2024-03-04T16:24:28.501Z,97.87
2024-03-04T16:27:13.280Z,95.90
2024-03-04T16:29:58.283Z,87.45
2024-03-04T16:32:43.225Z,102.83
2024-03-04T16:35:28.164Z,99.23
2024-03-04T16:38:14.133Z,98.43
2024-03-04T16:40:59.484Z,107.13
2024-03-04T16:43:44.537Z,108.20
2024-03-04T16:46:29.442Z,113.60
2024-03-04T16:49:14.557Z,110.17
2024-03-04T16:51:59.745Z,117.37
2024-03-04T16:54:44.710Z,106.60
2024-03-04T16:57:30.043Z,111.00
2024-03-04T17:00:15.660Z,111.70
2024-03-04T17:03:02.685Z,116.87
2024-03-04T17:05:47.620Z,107.00
2024-03-04T17:08:32.547Z,110.53
2024-03-04T17:11:17.576Z,123.50
2024-03-04T17:14:02.519Z,114.77
2024-03-04T17:16:47.634Z,148.93
2024-03-04T17:19:32.427Z,112.10
2024-03-04T17:22:17.396Z,104.77
2024-03-04T17:25:02.393Z,112.40
2024-03-04T17:27:47.252Z,130.82
2024-03-04T17:30:32.242Z,119.60
2024-03-04T17:33:17.286Z,114.67
2024-03-04T17:36:02.086Z,111.63
2024-03-04T17:38:47.082Z,112.70
2024-03-04T17:41:32.051Z,119.03
2024-03-04T17:44:16.865Z,113.30
2024-03-04T17:47:01.803Z,125.83
2024-03-04T17:49:47.792Z,120.93
2024-03-04T17:52:33.252Z,122.20
2024-03-04T17:55:18.668Z,100.27
2024-03-04T17:58:03.889Z,121.30
2024-03-04T18:00:49.029Z,116.07
2024-03-04T18:03:33.933Z,118.40
2024-03-04T18:06:18.761Z,127.27
2024-03-04T18:09:03.999Z,116.20
2024-03-04T18:11:49.034Z,111.73
2024-03-04T18:14:33.915Z,116.47
2024-03-04T18:17:18.890Z,115.53
2024-03-04T18:20:04.026Z,122.60
2024-03-04T18:22:49.474Z,125.30
2024-03-04T18:25:34.764Z,133.90
2024-03-04T18:28:19.969Z,157.33
2024-03-04T18:31:04.905Z,132.10
2024-03-04T18:33:49.854Z,121.60
2024-03-04T18:36:34.875Z,124.40
2024-03-04T18:39:19.713Z,122.27
2024-03-04T18:42:04.822Z,116.77
2024-03-04T18:44:49.982Z,129.33
2024-03-04T18:47:34.944Z,133.53
2024-03-04T18:50:19.874Z,130.83
2024-03-04T18:53:04.865Z,130.93
2024-03-04T18:55:49.993Z,136.27
2024-03-04T18:58:39.287Z,137.27
2024-03-04T19:01:25.282Z,149.20
2024-03-04T19:04:10.314Z,277.33
2024-03-04T19:06:55.803Z,167.30
2024-03-04T19:09:40.627Z,215.67
2024-03-04T19:12:25.414Z,163.27
2024-03-04T19:15:10.724Z,177.30
2024-03-04T19:17:55.791Z,168.80
2024-03-04T19:20:41.867Z,171.10
2024-03-04T19:23:27.166Z,179.27
2024-03-04T19:26:19.261Z,157.80
2024-03-04T19:29:04.305Z,161.70
2024-03-04T19:31:49.458Z,210.20
2024-03-04T19:34:34.780Z,165.70
2024-03-04T19:37:19.633Z,168.40
2024-03-04T19:40:05.841Z,187.03
2024-03-04T19:42:50.962Z,205.23
2024-03-04T19:45:35.916Z,174.80
2024-03-04T19:48:20.658Z,450.47
2024-03-04T19:51:05.589Z,261.27
2024-03-04T19:53:51.493Z,234.20
2024-03-04T19:56:36.507Z,210.07
2024-03-04T19:59:21.767Z,289.70
2024-03-04T20:02:06.974Z,268.53
2024-03-04T20:04:52.518Z,433.70
2024-03-04T20:07:37.865Z,259.27
2024-03-04T20:10:22.690Z,314.43
2024-03-04T20:13:07.552Z,224.33
2024-03-04T20:15:53.216Z,206.70
2024-03-04T20:18:38.282Z,192.67
2024-03-04T20:21:23.814Z,288.17
2024-03-04T20:24:08.805Z,294.83
2024-03-04T20:26:53.588Z,229.53
2024-03-04T20:29:38.570Z,236.90
2024-03-04T20:32:23.959Z,241.33
2024-03-04T20:35:09.446Z,222.53
2024-03-04T20:37:54.380Z,268.40
2024-03-04T20:40:43.612Z,193.93
2024-03-04T20:43:29.066Z,209.53
2024-03-04T20:46:14.543Z,282.93
2024-03-04T20:48:59.341Z,260.50
2024-03-04T20:51:44.304Z,301.70
2024-03-04T20:54:29.187Z,254.13
2024-03-04T20:57:14.232Z,216.47
2024-03-04T20:59:59.057Z,207.53
2024-03-04T21:02:45.785Z,191.57
2024-03-04T21:05:31.189Z,186.87
2024-03-04T21:08:16.023Z,186.50
2024-03-04T21:11:01.112Z,157.60
2024-03-04T21:13:46.344Z,167.17
2024-03-04T21:16:31.306Z,179.00
2024-03-04T21:19:16.216Z,187.83
2024-03-04T21:22:01.128Z,196.37
2024-03-04T21:24:46.493Z,163.30
2024-03-04T21:27:32.154Z,178.33
2024-03-04T21:30:17.331Z,177.50
2024-03-04T21:33:02.302Z,186.27
2024-03-04T21:35:47.421Z,197.13
2024-03-04T21:38:32.209Z,168.03
2024-03-04T21:41:17.086Z,183.03
2024-03-04T21:44:02.221Z,164.07
2024-03-04T21:46:47.560Z,188.87
2024-03-04T21:49:32.799Z,174.40
2024-03-04T21:52:17.572Z,168.30
2024-03-04T21:55:02.820Z,208.67
2024-03-04T21:57:48.003Z,174.07
2024-03-04T22:00:32.942Z,193.63
2024-03-04T22:03:17.807Z,416.23
2024-03-04T22:06:02.869Z,190.73
2024-03-04T22:08:48.782Z,281.00
2024-03-04T22:11:45.259Z,227.23
2024-03-04T22:14:31.617Z,392.07
2024-03-04T22:17:16.552Z,185.83
2024-03-04T22:20:01.477Z,185.87
2024-03-04T22:22:46.352Z,173.90
2024-03-04T22:25:31.239Z,175.53
2024-03-04T22:28:16.535Z,176.47
2024-03-04T22:31:01.728Z,199.17
2024-03-04T22:33:46.929Z,170.03
2024-03-04T22:36:31.907Z,173.90
2024-03-04T22:39:16.904Z,172.73
2024-03-04T22:42:01.834Z,158.63
2024-03-04T22:44:46.816Z,160.83
2024-03-04T22:47:31.716Z,210.03
2024-03-04T22:50:17.685Z,457.70
2024-03-04T22:53:02.662Z,416.30
2024-03-04T22:55:48.040Z,230.87
2024-03-04T22:58:32.989Z,180.27
2024-03-04T23:01:17.895Z,177.30
2024-03-04T23:04:03.341Z,172.90
2024-03-04T23:06:48.170Z,182.23
2024-03-04T23:09:33.123Z,174.73
2024-03-04T23:12:17.931Z,197.57
2024-03-04T23:15:03.157Z,234.37
2024-03-04T23:17:48.496Z,199.83
2024-03-04T23:20:33.345Z,190.30
2024-03-04T23:23:18.231Z,144.90
2024-03-04T23:26:03.358Z,145.77
2024-03-04T23:28:49.018Z,148.27
2024-03-04T23:31:34.486Z,138.20
2024-03-04T23:34:19.632Z,217.80
2024-03-04T23:37:04.580Z,133.77
2024-03-04T23:39:49.621Z,141.23
2024-03-04T23:42:34.494Z,139.30
2024-03-04T23:45:19.327Z,129.53
2024-03-04T23:48:04.557Z,153.53
2024-03-04T23:50:49.557Z,145.80
2024-03-04T23:53:34.522Z,138.20
2024-03-04T23:56:19.530Z,149.47
2024-03-04T23:59:04.372Z,158.37
